Meacham, OR

8:48 AM PDT on August 22, 2014 (GMT -0700)
Meacham | Change Station
CLOSE
Current Station
Airport
Location: Meacham,
Elevation: 3720 ft
Nearby Weather Stations

Elev 3720 ft 45.51 °N, 118.42 °W | Updated 52 minutes ago

Partly Cloudy
Partly Cloudy
51 °F
Feels Like 51 °F
N
0
Wind Variable Wind from North

Today
High -- | Low -- °F
--% Chance of Precip.
Yesterday
High -- | Low -- °F
Precip. -- in
6:02 AM 7:49 PM
Waning Crescent, 8% visible
Pressure 29.99 in
Visibility 10.0 miles
Clouds Few 12000 ft
Dew Point 42 °F
Humidity 71%
Rainfall 0.00 in
Snow Depth 0 in , 0 in
UV 1 out of 12
Pollen 5.50 out of 12
Air Quality Not available.
Flu Activity Not available.
METAR KMEH 221456Z AUTO 00000KT 10SM FEW120 11/06 A3001 RMK AO2 SLP154 T01060056 53005

More Conditions Fewer Conditions

Pressure 29.99 in
Visibility 10.0 miles
Clouds Few 12000 ft
Dew Point 42 °F
Humidity 71%
Rainfall 0.00 in
Snow Depth 0 in , 0 in
UV 1 out of 12
Pollen 5.50 out of 12
Air Quality Not available.
Flu Activity Not available.
METAR KMEH 221456Z AUTO 00000KT 10SM FEW120 11/06 A3001 RMK AO2 SLP154 T01060056 53005

More Conditions Fewer Conditions

10-Day Weather Forecast

Almanac

Astronomy

Aug. 22, 2014 Rise Set
Actual Time 6:02 AM PDT 7:49 PM PDT
Civil Twilight 5:31 AM PDT 8:20 PM PDT
Nautical Twilight 4:52 AM PDT 8:58 PM PDT
Astronomical Twilight 4:10 AM PDT 9:40 PM PDT
Moon 3:26 AM PDT 6:03 PM PDT
Length of Visible Light 14h 49m
Length of Day
13h 46m
Tomorrow will be 2m 58s shorter.
Waning Crescent, 8% of the Moon is Illuminated
Today
Waning Crescent
Aug 25
New
Sep 2
First Quarter
Sep 8
Full
Sep 15
Last Quarter

Today's Extremes

State Highs State Lows

Community

WunderPhotos

Upload Photos

1,746,188 photos uploaded!

Nearby

Snow Depth

Station Depth Elevation
Bowman Springs 0 in 4580 ft
High Ridge 0 in 4980 ft
Lucky Strike 0 in 5050 ft
Beaver Reservoir 0 in 5150 ft
Moss Springs 0 in 5850 ft

Earthquake Activity

City Distance Mag. Time & Date
No recent earthquake activity has been reported nearby.
Minimum magnitude displayed is 2.5.

Coastal Water Temperatures

Place Temperature
No Stations Reporting

Nearby Weather Stations